Pagrindinis puslapis
METAR-TAF:

METAR-TAF

Oro uostai :

Gran Kanarija, Ispanija

platuma: 27-56N, ilguma: 015-23W, Aukštis: 23 m

Dabartinis oras

Ataskaita buvo paskelbta 20 minutes, ne 19:00 UTC
Vėjas 15 kt iš Šiaurės
Temperatūra 19°C
Drėgmė 68%
Slėgis 1021 hPa
Matomumas 10 km arba daugiau
Mažai debesys ne aukštis 2000 ft
Išsisklaidę debesys ne aukštis 3500 ft
Su prošvaistėmis ne aukštis 4500 ft

METAR: GCLP 291900Z 36015KT 9999 FEW020 SCT035 BKN045 19/13 Q1021 NOSIG

Laikas: 19:20 (19:20 UTC)

Prognozė

Ataskaita buvo paskelbta 5 valandos ir 20 minutes, ne 14:00 UTC
Prognozė galioja nuo 29 metu 15 UTC su 01 metu 15 UTC
Vėjas 22 kt iš Šiaurės/Šiaurės Rytų
Matomumas 10 km arba daugiau
Išsisklaidę debesys ne aukštis 3500 ft
Tikimybė 30% :
Laikinai
nuo 29 metu 15 UTC su 01 metu 15 UTC
Vėjas 20 kt iš Šiaurės/Šiaurės Rytų su gūsio iki 30 kt
Tikimybė 30% :
Laikinai
nuo 01 metu 03 UTC su 01 metu 11 UTC
dulksna,

TAF: GCLP 291400Z 2915/0115 02022KT 9999 SCT035 TX21/0114Z TN16/0106Z PROB30 TEMPO 2915/0115 02020G30KT PROB30 TEMPO 0103/0111 DZ

Orai ataskaitas ir orų prognozės (METAR, TAF).

turimą stotys yra geltonos ir raudonos taškus žemėlapyje.

Perkelti pele per norėdami pamatyti stoties vardą.

Tada spustelėkite, norėdami matyti oro stebėjimo ir prognozės.

Norėdami pakeisti žemėlapį: spustelėkite ant žalios mygtukų su juodo kryžiaus žemyn,; žalią mygtuką su brūkšneliu, jei norite nutolinti; arba žalių rodyklių gretimoms žemėlapius.


METAR-TAF: